• Join FlightAware (Why Join?)
  • Login
  • US Flag 
01:48PM EDT


 

Airport Tracker/Info


-or-


 

Live Flight TrackerFlight Track Log ✈ N77VZ ✈ 21-Dec-2013 ✈ KNEW - KSVH

Flight Track Log - Related Links

Times and Time Zones

All times are in EST time to prevent confusion due to time zone crossing. See the N77VZ flight status page for this flight to view local times or setup timezone preferences in your user account.

Time Position Orientation Groundspeed Altitude Reporting Facility
EST Latitude Longitude Course Direction KTS MPH feet Rate Location/Type
10:06AM 30.0297 -90.0308 176° South 133 153 700  Level Houston Center
10:07AM 30.0089 -90.0292 176° South 166 191 2,100 2,880 Climbing Houston Center
10:07AM 30.0050 -90.0286 173° South 171 197 2,400 2,820 Climbing Houston Center
10:08AM 30.0028 -89.9744 93° East 243 280 5,000 2,700 Climbing Houston Center
10:08AM 30.0069 -89.9714 32° Northeast 234 269 5,200 1,920 Climbing Houston Center
10:09AM 30.0572 -89.9133 45° Northeast 251 289 7,200 2,040 Climbing Houston Center
10:10AM 30.1114 -89.8508 45° Northeast 270 311 9,500 1,920 Climbing Houston Center
10:11AM 30.1772 -89.7939 37° Northeast 289 333 11,200 1,740 Climbing Houston Center
10:12AM 30.2519 -89.7456 29° Northeast 305 351 13,100 1,740 Climbing Houston Center
10:13AM 30.3456 -89.6889 28° Northeast 323 372 14,900 960 Climbing Houston Center
10:14AM 30.4308 -89.6286 31° Northeast 357 411 15,100 900 Climbing Houston Center
10:15AM 30.5217 -89.5667 30° Northeast 377 434 16,800 1,680 Climbing Houston Center
10:16AM 30.6094 -89.5031 32° Northeast 375 432 18,600 1,920 Climbing Houston Center
10:17AM 30.7022 -89.4208 37° Northeast 352 405 20,800 1,680 Climbing Houston Center
10:18AM 30.7611 -89.3244 55° Northeast 363 418 22,100 1,260 Climbing Houston Center
10:19AM 30.8231 -89.2306 52° Northeast 367 422 23,500 1,260 Climbing Houston Center
10:20AM 30.8867 -89.1342 52° Northeast 375 432 24,700 1,200 Climbing Houston Center
10:21AM 30.9506 -89.0381 52° Northeast 376 433 26,100 1,440 Climbing Houston Center
10:22AM 31.0214 -88.9300 53° Northeast 370 426 27,700 1,380 Climbing Houston Center
10:23AM 31.0833 -88.8350 53° Northeast 368 423 29,000 1,140 Climbing Houston Center
10:24AM 31.1461 -88.7400 52° Northeast 368 423 30,100 1,080 Climbing Houston Center
10:25AM 31.2094 -88.6439 52° Northeast 370 426 31,300 1,140 Climbing Houston Center
10:26AM 31.2733 -88.5481 52° Northeast 371 427 32,500 1,140 Climbing Houston Center
10:27AM 31.3344 -88.4525 53° Northeast 366 421 33,700 1,080 Climbing Houston Center
10:28AM 31.3958 -88.3592 52° Northeast 361 415 34,800 960 Climbing Houston Center
10:29AM 31.4567 -88.2633 53° Northeast 363 418 35,700 960 Climbing Houston Center
10:30AM 31.5181 -88.1703 52° Northeast 362 417 36,800 1,020 Climbing Houston Center
10:31AM 31.5900 -88.0589 53° Northeast 357 411 37,900 900 Climbing Houston Center
10:32AM 31.6503 -87.9647 53° Northeast 358 412 38,700 720 Climbing Houston Center
10:33AM 31.6814 -87.9261 47° Northeast 358 412 39,100 780 Climbing Atlanta Center
10:34AM 31.7406 -87.8336 53° Northeast 358 412 39,900 780 Climbing Atlanta Center
10:35AM 31.8019 -87.7383 53° Northeast 358 412 40,700 540 Climbing Atlanta Center
10:36AM 31.8631 -87.6408 54° Northeast 358 412 41,000 120 Climbing Atlanta Center
10:37AM 31.9286 -87.5381 53° Northeast 364 419 41,000  Level Atlanta Center
10:38AM 31.9989 -87.4183 55° Northeast 390 449 41,000  Level Atlanta Center
10:39AM 32.0686 -87.3083 53° Northeast 400 460 41,000  Level Atlanta Center
10:40AM 32.1444 -87.1958 51° Northeast 419 482 41,000  Level Atlanta Center
10:41AM 32.2142 -87.0806 54° Northeast 425 489 41,000  Level Atlanta Center
10:42AM 32.2900 -86.9650 52° Northeast 431 496 41,000  Level Atlanta Center
10:43AM 32.3594 -86.8519 54° Northeast 431 496 41,000 240 Level Atlanta Center
10:44AM 32.4331 -86.7361 53° Northeast 431 496 41,500 540 Climbing Atlanta Center
10:45AM 32.5000 -86.6369 51° Northeast 431 496 42,100 660 Climbing Atlanta Center
10:46AM 32.5669 -86.5233 55° Northeast 426 490 42,900 420 Climbing Atlanta Center
10:47AM 32.6339 -86.4117 55° Northeast 426 490 43,000  Climbing Atlanta Center
10:48AM 32.7047 -86.3000 53° Northeast 426 490 43,000  Level Atlanta Center
10:49AM 32.7736 -86.1833 55° Northeast 421 484 43,000  Level Atlanta Center
10:50AM 32.8467 -86.0639 54° Northeast 426 490 43,000  Level Atlanta Center
10:51AM 32.9175 -85.9517 53° Northeast 426 490 43,000  Level Atlanta Center
10:52AM 32.9881 -85.8342 54° Northeast 426 490 43,000  Level Atlanta Center
10:53AM 33.0586 -85.7167 54° Northeast 426 490 43,000  Level Atlanta Center
10:54AM 33.1289 -85.5992 54° Northeast 431 496 43,000  Level Atlanta Center
10:55AM 33.1994 -85.4761 56° Northeast 436 502 43,000  Level Atlanta Center
10:56AM 33.2778 -85.3583 51° Northeast 426 490 43,000  Level Atlanta Center
10:57AM 33.3481 -85.2400 55° Northeast 433 498 43,000  Level Atlanta Center
10:58AM 33.4181 -85.1214 55° Northeast 438 504 43,000 -360 Level Atlanta Center
10:59AM 33.4919 -84.9978 54° Northeast 438 504 42,300 -900 Descending Atlanta Center
11:00AM 33.5597 -84.8839 54° Northeast 439 505 41,300 -1,680 Descending Atlanta Center
11:01AM 33.6314 -84.7647 54° Northeast 439 505 39,000 -960 Descending Atlanta Center
11:02AM 33.6903 -84.6606 56° Northeast 439 505 39,400  Climbing Atlanta Center
11:03AM 33.7558 -84.5236 60° Northeast 434 499 39,000 -240 Descending Atlanta Center
11:04AM 33.8042 -84.3889 67° East 426 490 39,000 -480 Level Atlanta Center
11:05AM 33.8589 -84.2564 64° Northeast 432 497 38,100 -900 Descending Atlanta Center
11:06AM 33.9133 -84.1139 65° Northeast 450 518 37,200 -600 Descending Atlanta Center
11:07AM 33.9653 -83.9786 65° Northeast 455 524 37,000 -180 Descending Atlanta Center
11:08AM 34.0153 -83.8483 65° Northeast 431 496 36,900 -720 Descending Atlanta Center
11:09AM 34.0672 -83.7128 65° Northeast 431 496 35,600 -1,560 Descending Atlanta Center
11:10AM 34.1169 -83.5797 66° East 431 496 33,800 -1,740 Descending Atlanta Center
11:11AM 34.1644 -83.4564 65° Northeast 436 502 32,200 -1,800 Descending Atlanta Center
11:12AM 34.2283 -83.3253 59° Northeast 442 509 30,200 -2,040 Descending Atlanta Center
11:13AM 34.3006 -83.2039 54° Northeast 442 509 28,200 -1,980 Descending Atlanta Center
11:14AM 34.3728 -83.0775 55° Northeast 449 517 26,300 -1,980 Descending Atlanta Center
11:15AM 34.4447 -82.9556 54° Northeast 449 517 24,300 -1,200 Descending Atlanta Center
11:16AM 34.5147 -82.8339 55° Northeast 449 517 24,000 -180 Descending Atlanta Center
11:17AM 34.5822 -82.7142 56° Northeast 437 503 24,000  Level Atlanta Center
11:18AM 34.6539 -82.5817 57° Northeast 437 503 24,000  Level Atlanta Center
11:19AM 34.7297 -82.4692 51° Northeast 432 497 24,000  Level Atlanta Center
11:20AM 34.7969 -82.3492 56° Northeast 427 491 24,000  Level Atlanta Center
11:21AM 34.8639 -82.2261 56° Northeast 432 497 24,000 -240 Level Atlanta Center
11:22AM 34.9353 -82.1081 54° Northeast 432 497 23,600 -960 Descending Atlanta Center
11:23AM 34.9981 -81.9925 56° Northeast 427 491 22,100 -1,500 Descending Atlanta Center
11:24AM 35.0692 -81.8842 51° Northeast 422 486 20,700 -1,560 Descending Atlanta Center
11:25AM 35.1283 -81.8039 48° Northeast 404 465 19,400 -1,800 Descending Atlanta Center
11:25AM 35.1447 -81.7833 46° Northeast 406 467 18,900 -1,920 Descending Atlanta Center
11:25AM 35.1508 -81.7756 46° Northeast 402 463 18,800 -1,740 Descending Atlanta Center
11:26AM 35.2200 -81.6872 46° Northeast 395 455 17,200 -1,800 Descending Atlanta Center
11:26AM 35.2303 -81.6717 51° Northeast 391 450 16,800 -2,040 Descending Atlanta Center
11:27AM 35.2972 -81.5831 47° Northeast 377 434 15,000 -1,980 Descending Atlanta Center
11:28AM 35.3583 -81.5022 47° Northeast 375 432 13,300 -1,980 Descending Atlanta Center
11:28AM 35.3581 -81.4997 98° East 362 417 13,200 -2,280 Descending Atlanta Center
11:29AM 35.4253 -81.4136 46° Northeast 336 387 11,000 -2,220 Descending Atlanta Center
11:30AM 35.4839 -81.3328 48° Northeast 342 394 8,900 -2,280 Descending Atlanta Center
11:30AM 35.4961 -81.3169 47° Northeast 329 379 8,500 -2,220 Descending Atlanta Center
11:31AM 35.5428 -81.2517 49° Northeast 328 377 6,700 -1,980 Descending Atlanta Center
11:32AM 35.6044 -81.2214 22° Northeast 290 334 4,900 -1,560 Descending Atlanta Center
11:33AM 35.6642 -81.2681 328° Northwest 259 298 3,600 -720 Descending Atlanta Center
11:34AM 35.7208 -81.2839 347° North 226 260 3,500 -60 Descending Atlanta Center
11:35AM 35.7653 -81.2211 49° Northeast 205 236 3,500  Level Atlanta Center